sensor_id;sensor_type;location;lat;lon;timestamp;P1;durP1;ratioP1;P2;durP2;ratioP2
75993;SDS011;64680;53.800;9.988;2023-08-21T00:00:49;7.60;;;3.00;;
75993;SDS011;64680;53.800;9.988;2023-08-21T00:03:14;5.50;;;2.80;;
75993;SDS011;64680;53.800;9.988;2023-08-21T00:05:40;6.40;;;2.58;;
75993;SDS011;64680;53.800;9.988;2023-08-21T00:08:05;3.70;;;2.30;;
75993;SDS011;64680;53.800;9.988;2023-08-21T00:10:31;7.88;;;2.92;;
75993;SDS011;64680;53.800;9.988;2023-08-21T00:12:58;3.97;;;1.85;;
75993;SDS011;64680;53.800;9.988;2023-08-21T00:15:23;5.28;;;2.47;;
75993;SDS011;64680;53.800;9.988;2023-08-21T00:17:49;8.57;;;2.25;;
75993;SDS011;64680;53.800;9.988;2023-08-21T00:20:14;4.00;;;2.08;;
75993;SDS011;64680;53.800;9.988;2023-08-21T00:22:40;1.95;;;1.50;;
75993;SDS011;64680;53.800;9.988;2023-08-21T00:25:06;4.80;;;2.20;;
75993;SDS011;64680;53.800;9.988;2023-08-21T00:27:32;3.85;;;1.70;;
75993;SDS011;64680;53.800;9.988;2023-08-21T00:29:57;3.15;;;1.50;;
75993;SDS011;64680;53.800;9.988;2023-08-21T00:32:25;2.33;;;1.98;;
75993;SDS011;64680;53.800;9.988;2023-08-21T00:34:50;2.65;;;1.50;;
75993;SDS011;64680;53.800;9.988;2023-08-21T00:37:16;5.05;;;2.13;;
75993;SDS011;64680;53.800;9.988;2023-08-21T00:39:42;3.28;;;2.28;;
75993;SDS011;64680;53.800;9.988;2023-08-21T00:42:07;3.10;;;1.98;;
75993;SDS011;64680;53.800;9.988;2023-08-21T00:44:33;3.92;;;1.92;;
75993;SDS011;64680;53.800;9.988;2023-08-21T00:46:58;3.75;;;1.70;;
75993;SDS011;64680;53.800;9.988;2023-08-21T00:49:24;2.78;;;2.00;;
75993;SDS011;64680;53.800;9.988;2023-08-21T00:51:50;4.38;;;1.70;;
75993;SDS011;64680;53.800;9.988;2023-08-21T00:54:16;2.17;;;1.48;;
75993;SDS011;64680;53.800;9.988;2023-08-21T00:56:42;3.83;;;1.90;;
75993;SDS011;64680;53.800;9.988;2023-08-21T00:59:08;2.50;;;1.20;;
75993;SDS011;64680;53.800;9.988;2023-08-21T01:01:34;2.70;;;1.10;;
75993;SDS011;64680;53.800;9.988;2023-08-21T01:04:01;2.40;;;1.10;;
75993;SDS011;64680;53.800;9.988;2023-08-21T01:06:27;2.38;;;1.58;;
75993;SDS011;64680;53.800;9.988;2023-08-21T01:08:57;2.25;;;1.30;;
75993;SDS011;64680;53.800;9.988;2023-08-21T01:11:33;2.08;;;1.50;;
75993;SDS011;64680;53.800;9.988;2023-08-21T01:14:20;3.42;;;1.42;;
75993;SDS011;64680;53.800;9.988;2023-08-21T01:16:48;3.25;;;1.50;;
75993;SDS011;64680;53.800;9.988;2023-08-21T01:19:30;2.25;;;1.48;;
75993;SDS011;64680;53.800;9.988;2023-08-21T01:22:06;2.35;;;1.40;;
75993;SDS011;64680;53.800;9.988;2023-08-21T01:24:32;2.80;;;2.50;;
75993;SDS011;64680;53.800;9.988;2023-08-21T01:26:58;5.00;;;2.15;;
75993;SDS011;64680;53.800;9.988;2023-08-21T01:29:24;6.55;;;2.13;;
75993;SDS011;64680;53.800;9.988;2023-08-21T01:31:50;3.85;;;1.90;;
75993;SDS011;64680;53.800;9.988;2023-08-21T01:34:40;2.90;;;1.60;;
75993;SDS011;64680;53.800;9.988;2023-08-21T01:37:07;1.80;;;1.23;;
75993;SDS011;64680;53.800;9.988;2023-08-21T01:39:34;1.77;;;1.45;;
75993;SDS011;64680;53.800;9.988;2023-08-21T01:41:59;1.67;;;1.30;;
75993;SDS011;64680;53.800;9.988;2023-08-21T01:44:25;4.68;;;2.53;;
75993;SDS011;64680;53.800;9.988;2023-08-21T01:46:51;3.70;;;1.88;;
75993;SDS011;64680;53.800;9.988;2023-08-21T01:49:17;3.10;;;2.10;;
75993;SDS011;64680;53.800;9.988;2023-08-21T01:51:44;3.15;;;2.05;;
75993;SDS011;64680;53.800;9.988;2023-08-21T01:54:10;3.80;;;2.40;;
75993;SDS011;64680;53.800;9.988;2023-08-21T01:56:36;3.42;;;1.90;;
75993;SDS011;64680;53.800;9.988;2023-08-21T01:59:01;4.07;;;2.17;;
75993;SDS011;64680;53.800;9.988;2023-08-21T02:01:28;4.78;;;2.38;;
75993;SDS011;64680;53.800;9.988;2023-08-21T02:03:54;2.72;;;1.63;;
75993;SDS011;64680;53.800;9.988;2023-08-21T02:06:19;2.63;;;1.73;;
75993;SDS011;64680;53.800;9.988;2023-08-21T02:08:45;4.18;;;2.13;;
75993;SDS011;64680;53.800;9.988;2023-08-21T02:11:11;3.10;;;2.40;;
75993;SDS011;64680;53.800;9.988;2023-08-21T02:13:36;5.32;;;2.97;;
75993;SDS011;64680;53.800;9.988;2023-08-21T02:16:02;6.50;;;3.53;;
75993;SDS011;64680;53.800;9.988;2023-08-21T02:18:28;5.07;;;2.55;;
75993;SDS011;64680;53.800;9.988;2023-08-21T02:20:54;4.20;;;2.42;;
75993;SDS011;64680;53.800;9.988;2023-08-21T02:23:19;4.07;;;2.17;;
75993;SDS011;64680;53.800;9.988;2023-08-21T02:25:45;4.53;;;2.13;;
75993;SDS011;64680;53.800;9.988;2023-08-21T02:28:11;5.85;;;3.08;;
75993;SDS011;64680;53.800;9.988;2023-08-21T02:30:39;5.78;;;3.58;;
75993;SDS011;64680;53.800;9.988;2023-08-21T02:33:05;6.10;;;3.90;;
75993;SDS011;64680;53.800;9.988;2023-08-21T02:35:31;8.75;;;4.22;;
75993;SDS011;64680;53.800;9.988;2023-08-21T02:37:56;8.50;;;4.65;;
75993;SDS011;64680;53.800;9.988;2023-08-21T02:40:22;8.30;;;4.10;;
75993;SDS011;64680;53.800;9.988;2023-08-21T02:42:47;8.63;;;4.13;;
75993;SDS011;64680;53.800;9.988;2023-08-21T02:45:13;6.80;;;3.17;;
75993;SDS011;64680;53.800;9.988;2023-08-21T02:47:39;7.97;;;3.55;;
75993;SDS011;64680;53.800;9.988;2023-08-21T02:50:07;5.95;;;3.38;;
75993;SDS011;64680;53.800;9.988;2023-08-21T02:52:34;5.35;;;3.22;;
75993;SDS011;64680;53.800;9.988;2023-08-21T02:55:00;4.45;;;3.03;;
75993;SDS011;64680;53.800;9.988;2023-08-21T02:57:26;7.32;;;3.00;;
75993;SDS011;64680;53.800;9.988;2023-08-21T02:59:52;7.70;;;4.75;;
75993;SDS011;64680;53.800;9.988;2023-08-21T03:02:18;7.28;;;3.95;;
75993;SDS011;64680;53.800;9.988;2023-08-21T03:04:44;6.80;;;4.07;;
75993;SDS011;64680;53.800;9.988;2023-08-21T03:07:10;8.82;;;4.30;;
75993;SDS011;64680;53.800;9.988;2023-08-21T03:09:36;10.13;;;4.40;;
75993;SDS011;64680;53.800;9.988;2023-08-21T03:12:02;10.10;;;5.22;;
75993;SDS011;64680;53.800;9.988;2023-08-21T03:14:28;11.07;;;5.50;;
75993;SDS011;64680;53.800;9.988;2023-08-21T03:16:53;11.48;;;6.18;;
75993;SDS011;64680;53.800;9.988;2023-08-21T03:19:19;12.60;;;6.55;;
75993;SDS011;64680;53.800;9.988;2023-08-21T03:21:45;10.77;;;6.00;;
75993;SDS011;64680;53.800;9.988;2023-08-21T03:24:10;12.27;;;5.95;;
75993;SDS011;64680;53.800;9.988;2023-08-21T03:26:36;14.95;;;7.32;;
75993;SDS011;64680;53.800;9.988;2023-08-21T03:29:01;12.10;;;6.45;;
75993;SDS011;64680;53.800;9.988;2023-08-21T03:31:27;10.20;;;6.07;;
75993;SDS011;64680;53.800;9.988;2023-08-21T03:33:53;12.60;;;6.00;;
75993;SDS011;64680;53.800;9.988;2023-08-21T03:36:18;10.93;;;6.40;;
75993;SDS011;64680;53.800;9.988;2023-08-21T03:38:44;10.80;;;6.07;;
75993;SDS011;64680;53.800;9.988;2023-08-21T03:41:10;12.85;;;6.47;;
75993;SDS011;64680;53.800;9.988;2023-08-21T03:43:36;15.38;;;8.55;;
75993;SDS011;64680;53.800;9.988;2023-08-21T03:46:02;16.80;;;8.27;;
75993;SDS011;64680;53.800;9.988;2023-08-21T03:48:28;14.68;;;6.97;;
75993;SDS011;64680;53.800;9.988;2023-08-21T03:50:53;17.90;;;8.43;;
75993;SDS011;64680;53.800;9.988;2023-08-21T03:53:19;16.92;;;8.73;;
75993;SDS011;64680;53.800;9.988;2023-08-21T03:55:44;13.95;;;7.30;;
75993;SDS011;64680;53.800;9.988;2023-08-21T03:58:10;13.65;;;7.05;;
75993;SDS011;64680;53.800;9.988;2023-08-21T04:00:36;12.57;;;6.72;;
75993;SDS011;64680;53.800;9.988;2023-08-21T04:03:02;15.82;;;8.32;;
75993;SDS011;64680;53.800;9.988;2023-08-21T04:05:28;17.38;;;9.73;;
75993;SDS011;64680;53.800;9.988;2023-08-21T04:07:53;13.35;;;7.40;;
75993;SDS011;64680;53.800;9.988;2023-08-21T04:10:19;11.68;;;6.78;;
75993;SDS011;64680;53.800;9.988;2023-08-21T04:12:44;14.80;;;7.57;;
75993;SDS011;64680;53.800;9.988;2023-08-21T04:15:10;13.80;;;8.10;;
75993;SDS011;64680;53.800;9.988;2023-08-21T04:17:35;20.85;;;10.73;;
75993;SDS011;64680;53.800;9.988;2023-08-21T04:20:02;16.92;;;8.55;;
75993;SDS011;64680;53.800;9.988;2023-08-21T04:22:28;14.50;;;8.90;;
75993;SDS011;64680;53.800;9.988;2023-08-21T04:24:53;12.20;;;7.75;;
75993;SDS011;64680;53.800;9.988;2023-08-21T04:27:19;13.48;;;8.18;;
75993;SDS011;64680;53.800;9.988;2023-08-21T04:29:44;13.70;;;8.35;;
75993;SDS011;64680;53.800;9.988;2023-08-21T04:32:10;22.45;;;10.10;;
75993;SDS011;64680;53.800;9.988;2023-08-21T04:34:37;17.05;;;8.27;;
75993;SDS011;64680;53.800;9.988;2023-08-21T04:37:02;14.02;;;7.25;;
75993;SDS011;64680;53.800;9.988;2023-08-21T04:39:29;12.00;;;6.43;;
75993;SDS011;64680;53.800;9.988;2023-08-21T04:41:55;19.15;;;9.20;;
75993;SDS011;64680;53.800;9.988;2023-08-21T04:44:21;12.63;;;6.78;;
75993;SDS011;64680;53.800;9.988;2023-08-21T04:46:47;18.55;;;9.52;;
75993;SDS011;64680;53.800;9.988;2023-08-21T04:49:15;16.40;;;9.35;;
75993;SDS011;64680;53.800;9.988;2023-08-21T04:51:41;14.38;;;7.85;;
75993;SDS011;64680;53.800;9.988;2023-08-21T04:54:07;12.70;;;7.43;;
75993;SDS011;64680;53.800;9.988;2023-08-21T04:56:33;13.85;;;8.40;;
75993;SDS011;64680;53.800;9.988;2023-08-21T04:58:58;14.20;;;8.23;;
75993;SDS011;64680;53.800;9.988;2023-08-21T05:01:24;18.00;;;9.00;;
75993;SDS011;64680;53.800;9.988;2023-08-21T05:03:49;17.90;;;8.50;;
75993;SDS011;64680;53.800;9.988;2023-08-21T05:06:16;16.67;;;8.55;;
75993;SDS011;64680;53.800;9.988;2023-08-21T05:08:41;17.75;;;9.13;;
75993;SDS011;64680;53.800;9.988;2023-08-21T05:11:07;15.52;;;8.88;;
75993;SDS011;64680;53.800;9.988;2023-08-21T05:13:32;21.83;;;11.38;;
75993;SDS011;64680;53.800;9.988;2023-08-21T05:15:58;15.35;;;9.50;;
75993;SDS011;64680;53.800;9.988;2023-08-21T05:18:24;18.15;;;9.05;;
75993;SDS011;64680;53.800;9.988;2023-08-21T05:20:52;13.95;;;8.45;;
75993;SDS011;64680;53.800;9.988;2023-08-21T05:23:18;21.73;;;8.90;;
75993;SDS011;64680;53.800;9.988;2023-08-21T05:25:44;15.65;;;9.10;;
75993;SDS011;64680;53.800;9.988;2023-08-21T05:28:10;17.05;;;8.25;;
75993;SDS011;64680;53.800;9.988;2023-08-21T05:30:36;18.02;;;9.57;;
75993;SDS011;64680;53.800;9.988;2023-08-21T05:33:03;15.80;;;8.32;;
75993;SDS011;64680;53.800;9.988;2023-08-21T05:35:32;21.45;;;9.98;;
75993;SDS011;64680;53.800;9.988;2023-08-21T05:37:58;14.05;;;7.88;;
75993;SDS011;64680;53.800;9.988;2023-08-21T05:40:24;12.95;;;7.35;;
75993;SDS011;64680;53.800;9.988;2023-08-21T05:42:49;15.65;;;8.45;;
75993;SDS011;64680;53.800;9.988;2023-08-21T05:45:15;12.35;;;7.45;;
75993;SDS011;64680;53.800;9.988;2023-08-21T05:47:41;14.30;;;6.82;;
75993;SDS011;64680;53.800;9.988;2023-08-21T05:50:06;11.35;;;6.45;;
75993;SDS011;64680;53.800;9.988;2023-08-21T05:52:32;9.75;;;5.45;;
75993;SDS011;64680;53.800;9.988;2023-08-21T05:54:58;9.02;;;5.10;;
75993;SDS011;64680;53.800;9.988;2023-08-21T05:57:23;10.20;;;5.80;;
75993;SDS011;64680;53.800;9.988;2023-08-21T05:59:49;11.80;;;5.45;;
75993;SDS011;64680;53.800;9.988;2023-08-21T06:02:15;13.25;;;6.20;;
75993;SDS011;64680;53.800;9.988;2023-08-21T06:04:41;10.93;;;4.80;;
75993;SDS011;64680;53.800;9.988;2023-08-21T06:07:07;10.43;;;5.18;;
75993;SDS011;64680;53.800;9.988;2023-08-21T06:09:33;11.77;;;5.30;;
75993;SDS011;64680;53.800;9.988;2023-08-21T06:11:59;12.27;;;5.97;;
75993;SDS011;64680;53.800;9.988;2023-08-21T06:14:28;11.65;;;5.80;;
75993;SDS011;64680;53.800;9.988;2023-08-21T06:16:57;8.25;;;4.85;;
75993;SDS011;64680;53.800;9.988;2023-08-21T06:19:27;10.50;;;4.88;;
75993;SDS011;64680;53.800;9.988;2023-08-21T06:21:53;7.53;;;4.45;;
75993;SDS011;64680;53.800;9.988;2023-08-21T06:24:19;8.20;;;4.70;;
75993;SDS011;64680;53.800;9.988;2023-08-21T06:26:45;8.35;;;4.50;;
75993;SDS011;64680;53.800;9.988;2023-08-21T06:29:11;11.10;;;5.47;;
75993;SDS011;64680;53.800;9.988;2023-08-21T06:31:36;7.53;;;4.55;;
75993;SDS011;64680;53.800;9.988;2023-08-21T06:34:02;9.68;;;4.15;;
75993;SDS011;64680;53.800;9.988;2023-08-21T06:36:27;9.27;;;4.72;;
75993;SDS011;64680;53.800;9.988;2023-08-21T06:38:53;11.13;;;4.20;;
75993;SDS011;64680;53.800;9.988;2023-08-21T06:41:20;12.30;;;4.53;;
75993;SDS011;64680;53.800;9.988;2023-08-21T06:43:45;8.90;;;3.72;;
75993;SDS011;64680;53.800;9.988;2023-08-21T06:46:11;6.32;;;3.17;;
75993;SDS011;64680;53.800;9.988;2023-08-21T06:48:37;10.13;;;4.30;;
75993;SDS011;64680;53.800;9.988;2023-08-21T06:51:05;6.72;;;2.60;;
75993;SDS011;64680;53.800;9.988;2023-08-21T06:53:31;8.05;;;3.33;;
75993;SDS011;64680;53.800;9.988;2023-08-21T06:55:57;9.73;;;3.53;;
75993;SDS011;64680;53.800;9.988;2023-08-21T06:58:22;7.43;;;2.88;;
75993;SDS011;64680;53.800;9.988;2023-08-21T07:00:48;6.75;;;2.22;;
75993;SDS011;64680;53.800;9.988;2023-08-21T07:03:13;14.35;;;2.67;;
75993;SDS011;64680;53.800;9.988;2023-08-21T07:05:39;7.65;;;2.28;;
75993;SDS011;64680;53.800;9.988;2023-08-21T07:08:05;6.13;;;1.90;;
75993;SDS011;64680;53.800;9.988;2023-08-21T07:10:35;8.50;;;1.95;;
75993;SDS011;64680;53.800;9.988;2023-08-21T07:13:02;3.33;;;1.75;;
75993;SDS011;64680;53.800;9.988;2023-08-21T07:15:28;5.05;;;1.45;;
75993;SDS011;64680;53.800;9.988;2023-08-21T07:17:54;9.93;;;2.00;;
75993;SDS011;64680;53.800;9.988;2023-08-21T07:20:21;8.48;;;1.98;;
75993;SDS011;64680;53.800;9.988;2023-08-21T07:22:47;6.75;;;1.98;;
75993;SDS011;64680;53.800;9.988;2023-08-21T07:25:12;4.63;;;2.10;;
75993;SDS011;64680;53.800;9.988;2023-08-21T07:27:38;7.43;;;2.00;;
75993;SDS011;64680;53.800;9.988;2023-08-21T07:30:04;6.55;;;1.30;;
75993;SDS011;64680;53.800;9.988;2023-08-21T07:32:31;4.13;;;1.20;;
75993;SDS011;64680;53.800;9.988;2023-08-21T07:34:56;6.15;;;1.58;;
75993;SDS011;64680;53.800;9.988;2023-08-21T07:37:22;3.60;;;1.88;;
75993;SDS011;64680;53.800;9.988;2023-08-21T07:39:47;3.63;;;1.05;;
75993;SDS011;64680;53.800;9.988;2023-08-21T07:42:13;3.50;;;1.13;;
75993;SDS011;64680;53.800;9.988;2023-08-21T07:44:39;5.32;;;1.30;;
75993;SDS011;64680;53.800;9.988;2023-08-21T07:47:05;6.35;;;1.20;;
75993;SDS011;64680;53.800;9.988;2023-08-21T07:49:31;4.03;;;1.13;;
75993;SDS011;64680;53.800;9.988;2023-08-21T07:51:57;3.53;;;1.00;;
75993;SDS011;64680;53.800;9.988;2023-08-21T07:54:23;4.22;;;0.98;;
75993;SDS011;64680;53.800;9.988;2023-08-21T07:56:51;2.30;;;0.82;;
75993;SDS011;64680;53.800;9.988;2023-08-21T07:59:17;4.18;;;0.95;;
75993;SDS011;64680;53.800;9.988;2023-08-21T08:01:44;2.45;;;1.10;;
75993;SDS011;64680;53.800;9.988;2023-08-21T08:04:10;5.03;;;1.17;;
75993;SDS011;64680;53.800;9.988;2023-08-21T08:06:36;4.70;;;1.40;;
75993;SDS011;64680;53.800;9.988;2023-08-21T08:09:01;5.30;;;0.90;;
75993;SDS011;64680;53.800;9.988;2023-08-21T08:11:28;4.60;;;1.05;;
75993;SDS011;64680;53.800;9.988;2023-08-21T08:13:54;3.60;;;0.82;;
75993;SDS011;64680;53.800;9.988;2023-08-21T08:16:20;3.65;;;0.57;;
75993;SDS011;64680;53.800;9.988;2023-08-21T08:18:45;6.97;;;0.90;;
75993;SDS011;64680;53.800;9.988;2023-08-21T08:21:11;5.93;;;1.10;;
75993;SDS011;64680;53.800;9.988;2023-08-21T08:23:37;3.08;;;0.82;;
75993;SDS011;64680;53.800;9.988;2023-08-21T08:26:02;3.78;;;0.80;;
75993;SDS011;64680;53.800;9.988;2023-08-21T08:28:28;3.88;;;1.00;;
75993;SDS011;64680;53.800;9.988;2023-08-21T08:30:54;3.97;;;0.82;;
75993;SDS011;64680;53.800;9.988;2023-08-21T08:33:19;4.78;;;0.90;;
75993;SDS011;64680;53.800;9.988;2023-08-21T08:35:45;3.97;;;1.23;;
75993;SDS011;64680;53.800;9.988;2023-08-21T08:38:11;8.00;;;0.73;;
75993;SDS011;64680;53.800;9.988;2023-08-21T08:40:37;6.88;;;0.80;;
75993;SDS011;64680;53.800;9.988;2023-08-21T08:43:08;5.18;;;0.63;;
75993;SDS011;64680;53.800;9.988;2023-08-21T08:45:36;4.93;;;0.85;;
75993;SDS011;64680;53.800;9.988;2023-08-21T08:48:02;5.13;;;0.73;;
75993;SDS011;64680;53.800;9.988;2023-08-21T08:52:56;3.90;;;1.00;;
75993;SDS011;64680;53.800;9.988;2023-08-21T08:55:23;4.07;;;0.60;;
75993;SDS011;64680;53.800;9.988;2023-08-21T08:57:49;3.75;;;0.98;;
75993;SDS011;64680;53.800;9.988;2023-08-21T09:00:15;2.92;;;1.00;;
75993;SDS011;64680;53.800;9.988;2023-08-21T09:02:41;3.55;;;0.73;;
75993;SDS011;64680;53.800;9.988;2023-08-21T09:05:06;4.28;;;0.90;;
75993;SDS011;64680;53.800;9.988;2023-08-21T09:07:33;4.30;;;0.70;;
75993;SDS011;64680;53.800;9.988;2023-08-21T09:09:59;3.25;;;0.88;;
75993;SDS011;64680;53.800;9.988;2023-08-21T09:12:26;2.78;;;0.90;;
75993;SDS011;64680;53.800;9.988;2023-08-21T09:14:51;2.78;;;0.73;;
75993;SDS011;64680;53.800;9.988;2023-08-21T09:17:17;1.83;;;0.60;;
75993;SDS011;64680;53.800;9.988;2023-08-21T09:19:43;4.50;;;0.88;;
75993;SDS011;64680;53.800;9.988;2023-08-21T09:22:13;3.80;;;1.00;;
75993;SDS011;64680;53.800;9.988;2023-08-21T09:24:40;1.92;;;1.00;;
75993;SDS011;64680;53.800;9.988;2023-08-21T09:27:13;1.80;;;0.60;;
75993;SDS011;64680;53.800;9.988;2023-08-21T09:29:40;3.53;;;1.05;;
75993;SDS011;64680;53.800;9.988;2023-08-21T09:32:06;5.13;;;1.20;;
75993;SDS011;64680;53.800;9.988;2023-08-21T09:34:35;3.40;;;1.27;;
75993;SDS011;64680;53.800;9.988;2023-08-21T09:37:04;4.95;;;1.27;;
75993;SDS011;64680;53.800;9.988;2023-08-21T09:39:32;5.22;;;1.08;;
75993;SDS011;64680;53.800;9.988;2023-08-21T09:41:59;4.15;;;1.02;;
75993;SDS011;64680;53.800;9.988;2023-08-21T09:44:25;3.05;;;1.02;;
75993;SDS011;64680;53.800;9.988;2023-08-21T09:46:51;4.32;;;1.40;;
75993;SDS011;64680;53.800;9.988;2023-08-21T09:49:17;4.75;;;1.30;;
75993;SDS011;64680;53.800;9.988;2023-08-21T09:54:10;5.25;;;1.33;;
75993;SDS011;64680;53.800;9.988;2023-08-21T09:56:37;4.03;;;1.20;;
75993;SDS011;64680;53.800;9.988;2023-08-21T09:59:02;6.47;;;1.15;;
75993;SDS011;64680;53.800;9.988;2023-08-21T10:01:28;4.35;;;1.45;;
75993;SDS011;64680;53.800;9.988;2023-08-21T10:03:58;5.35;;;1.20;;
75993;SDS011;64680;53.800;9.988;2023-08-21T10:06:28;3.80;;;0.98;;
75993;SDS011;64680;53.800;9.988;2023-08-21T10:08:54;3.97;;;1.08;;
75993;SDS011;64680;53.800;9.988;2023-08-21T10:11:22;2.70;;;0.90;;
75993;SDS011;64680;53.800;9.988;2023-08-21T10:13:48;3.47;;;0.80;;
75993;SDS011;64680;53.800;9.988;2023-08-21T10:16:16;4.57;;;1.10;;
75993;SDS011;64680;53.800;9.988;2023-08-21T10:18:46;3.80;;;0.70;;
75993;SDS011;64680;53.800;9.988;2023-08-21T10:23:42;1.73;;;0.50;;
75993;SDS011;64680;53.800;9.988;2023-08-21T10:26:11;2.95;;;0.70;;
75993;SDS011;64680;53.800;9.988;2023-08-21T10:28:40;2.25;;;0.88;;
75993;SDS011;64680;53.800;9.988;2023-08-21T10:34:02;4.80;;;0.80;;
75993;SDS011;64680;53.800;9.988;2023-08-21T10:39:27;4.20;;;1.13;;
75993;SDS011;64680;53.800;9.988;2023-08-21T10:42:01;2.17;;;0.60;;
75993;SDS011;64680;53.800;9.988;2023-08-21T10:47:14;5.35;;;1.30;;
75993;SDS011;64680;53.800;9.988;2023-08-21T10:49:41;3.88;;;0.60;;
75993;SDS011;64680;53.800;9.988;2023-08-21T10:52:08;2.55;;;0.70;;
75993;SDS011;64680;53.800;9.988;2023-08-21T10:54:48;3.10;;;0.80;;
75993;SDS011;64680;53.800;9.988;2023-08-21T10:57:15;1.77;;;0.70;;
75993;SDS011;64680;53.800;9.988;2023-08-21T10:59:51;2.20;;;0.40;;
75993;SDS011;64680;53.800;9.988;2023-08-21T11:02:21;2.13;;;0.75;;
75993;SDS011;64680;53.800;9.988;2023-08-21T11:04:48;3.05;;;0.63;;
75993;SDS011;64680;53.800;9.988;2023-08-21T11:07:14;2.70;;;0.50;;
75993;SDS011;64680;53.800;9.988;2023-08-21T11:09:40;2.45;;;0.38;;
75993;SDS011;64680;53.800;9.988;2023-08-21T11:12:06;4.07;;;0.80;;
75993;SDS011;64680;53.800;9.988;2023-08-21T11:14:37;3.30;;;0.40;;
75993;SDS011;64680;53.800;9.988;2023-08-21T11:17:03;3.30;;;0.57;;
75993;SDS011;64680;53.800;9.988;2023-08-21T11:19:30;1.52;;;0.40;;
75993;SDS011;64680;53.800;9.988;2023-08-21T11:21:56;1.77;;;0.30;;
75993;SDS011;64680;53.800;9.988;2023-08-21T11:24:29;1.77;;;0.50;;
75993;SDS011;64680;53.800;9.988;2023-08-21T11:27:04;2.65;;;0.50;;
75993;SDS011;64680;53.800;9.988;2023-08-21T11:29:37;3.53;;;0.60;;
75993;SDS011;64680;53.800;9.988;2023-08-21T11:32:07;4.25;;;0.50;;
75993;SDS011;64680;53.800;9.988;2023-08-21T11:34:36;2.22;;;0.55;;
75993;SDS011;64680;53.800;9.988;2023-08-21T11:37:02;2.28;;;0.60;;
75993;SDS011;64680;53.800;9.988;2023-08-21T11:39:42;3.22;;;0.70;;
75993;SDS011;64680;53.800;9.988;2023-08-21T11:42:09;2.42;;;0.60;;
75993;SDS011;64680;53.800;9.988;2023-08-21T11:44:44;2.85;;;0.52;;
75993;SDS011;64680;53.800;9.988;2023-08-21T11:47:15;4.75;;;0.30;;
75993;SDS011;64680;53.800;9.988;2023-08-21T11:49:42;1.50;;;0.30;;
75993;SDS011;64680;53.800;9.988;2023-08-21T11:52:08;3.90;;;0.30;;
75993;SDS011;64680;53.800;9.988;2023-08-21T11:54:35;3.10;;;0.38;;
75993;SDS011;64680;53.800;9.988;2023-08-21T11:57:04;2.45;;;0.20;;
75993;SDS011;64680;53.800;9.988;2023-08-21T11:59:33;1.75;;;0.20;;
75993;SDS011;64680;53.800;9.988;2023-08-21T12:01:59;1.08;;;0.20;;
75993;SDS011;64680;53.800;9.988;2023-08-21T12:04:25;2.97;;;0.47;;
75993;SDS011;64680;53.800;9.988;2023-08-21T12:06:51;3.65;;;0.40;;
75993;SDS011;64680;53.800;9.988;2023-08-21T12:09:17;2.85;;;0.45;;
75993;SDS011;64680;53.800;9.988;2023-08-21T12:11:44;1.27;;;0.30;;
75993;SDS011;64680;53.800;9.988;2023-08-21T12:14:10;0.95;;;0.30;;
75993;SDS011;64680;53.800;9.988;2023-08-21T12:16:36;1.13;;;0.32;;
75993;SDS011;64680;53.800;9.988;2023-08-21T12:19:02;2.20;;;0.20;;
75993;SDS011;64680;53.800;9.988;2023-08-21T12:21:28;2.83;;;0.20;;
75993;SDS011;64680;53.800;9.988;2023-08-21T12:23:53;1.95;;;0.30;;
75993;SDS011;64680;53.800;9.988;2023-08-21T12:26:19;0.65;;;0.10;;
75993;SDS011;64680;53.800;9.988;2023-08-21T12:28:48;1.00;;;0.22;;
75993;SDS011;64680;53.800;9.988;2023-08-21T12:31:14;1.55;;;0.20;;
75993;SDS011;64680;53.800;9.988;2023-08-21T12:33:40;1.80;;;0.40;;
75993;SDS011;64680;53.800;9.988;2023-08-21T12:36:06;2.25;;;0.32;;
75993;SDS011;64680;53.800;9.988;2023-08-21T12:38:33;1.77;;;0.28;;
75993;SDS011;64680;53.800;9.988;2023-08-21T12:41:01;1.13;;;0.28;;
75993;SDS011;64680;53.800;9.988;2023-08-21T12:43:27;1.38;;;0.32;;
75993;SDS011;64680;53.800;9.988;2023-08-21T12:45:53;2.17;;;0.45;;
75993;SDS011;64680;53.800;9.988;2023-08-21T12:48:19;1.30;;;0.32;;
75993;SDS011;64680;53.800;9.988;2023-08-21T12:50:44;2.47;;;0.30;;
75993;SDS011;64680;53.800;9.988;2023-08-21T12:53:10;2.15;;;0.32;;
75993;SDS011;64680;53.800;9.988;2023-08-21T12:55:35;2.80;;;0.52;;
75993;SDS011;64680;53.800;9.988;2023-08-21T12:58:01;2.15;;;0.50;;
75993;SDS011;64680;53.800;9.988;2023-08-21T13:00:27;2.30;;;0.40;;
75993;SDS011;64680;53.800;9.988;2023-08-21T13:02:52;1.35;;;0.30;;
75993;SDS011;64680;53.800;9.988;2023-08-21T13:05:18;2.10;;;0.57;;
75993;SDS011;64680;53.800;9.988;2023-08-21T13:07:44;2.25;;;0.47;;
75993;SDS011;64680;53.800;9.988;2023-08-21T13:10:09;2.25;;;0.30;;
75993;SDS011;64680;53.800;9.988;2023-08-21T13:12:35;1.42;;;0.40;;
75993;SDS011;64680;53.800;9.988;2023-08-21T13:15:01;1.75;;;0.43;;
75993;SDS011;64680;53.800;9.988;2023-08-21T13:17:27;2.47;;;0.50;;
75993;SDS011;64680;53.800;9.988;2023-08-21T13:19:53;1.67;;;0.50;;
75993;SDS011;64680;53.800;9.988;2023-08-21T13:22:19;0.88;;;0.40;;
75993;SDS011;64680;53.800;9.988;2023-08-21T13:24:44;4.65;;;0.82;;
75993;SDS011;64680;53.800;9.988;2023-08-21T13:27:10;2.95;;;0.47;;
75993;SDS011;64680;53.800;9.988;2023-08-21T13:29:37;1.75;;;0.60;;
75993;SDS011;64680;53.800;9.988;2023-08-21T13:32:03;3.03;;;0.40;;
75993;SDS011;64680;53.800;9.988;2023-08-21T13:34:28;2.95;;;0.57;;
75993;SDS011;64680;53.800;9.988;2023-08-21T13:36:54;2.67;;;0.68;;
75993;SDS011;64680;53.800;9.988;2023-08-21T13:39:20;2.67;;;0.60;;
75993;SDS011;64680;53.800;9.988;2023-08-21T13:41:47;1.67;;;0.40;;
75993;SDS011;64680;53.800;9.988;2023-08-21T13:44:14;1.55;;;0.35;;
75993;SDS011;64680;53.800;9.988;2023-08-21T13:46:39;2.63;;;0.50;;
75993;SDS011;64680;53.800;9.988;2023-08-21T13:49:05;2.05;;;0.43;;
75993;SDS011;64680;53.800;9.988;2023-08-21T13:51:31;2.40;;;0.80;;
75993;SDS011;64680;53.800;9.988;2023-08-21T13:53:56;1.88;;;0.50;;
75993;SDS011;64680;53.800;9.988;2023-08-21T13:56:22;1.48;;;0.70;;
75993;SDS011;64680;53.800;9.988;2023-08-21T13:58:48;3.20;;;0.38;;
75993;SDS011;64680;53.800;9.988;2023-08-21T14:01:13;2.25;;;0.60;;
75993;SDS011;64680;53.800;9.988;2023-08-21T14:03:39;1.58;;;0.40;;
75993;SDS011;64680;53.800;9.988;2023-08-21T14:06:05;1.92;;;0.40;;
75993;SDS011;64680;53.800;9.988;2023-08-21T14:08:35;2.03;;;0.40;;
75993;SDS011;64680;53.800;9.988;2023-08-21T14:11:01;2.25;;;0.52;;
75993;SDS011;64680;53.800;9.988;2023-08-21T14:13:26;1.30;;;0.65;;
75993;SDS011;64680;53.800;9.988;2023-08-21T14:15:52;2.97;;;0.60;;
75993;SDS011;64680;53.800;9.988;2023-08-21T14:18:17;1.50;;;0.50;;
75993;SDS011;64680;53.800;9.988;2023-08-21T14:20:43;1.95;;;0.52;;
75993;SDS011;64680;53.800;9.988;2023-08-21T14:23:09;1.90;;;0.50;;
75993;SDS011;64680;53.800;9.988;2023-08-21T14:25:34;2.53;;;0.60;;
75993;SDS011;64680;53.800;9.988;2023-08-21T14:30:28;2.78;;;0.50;;
75993;SDS011;64680;53.800;9.988;2023-08-21T14:32:53;1.58;;;0.28;;
75993;SDS011;64680;53.800;9.988;2023-08-21T14:35:19;1.60;;;0.70;;
75993;SDS011;64680;53.800;9.988;2023-08-21T14:37:44;2.72;;;0.50;;
75993;SDS011;64680;53.800;9.988;2023-08-21T14:40:10;2.65;;;0.60;;
75993;SDS011;64680;53.800;9.988;2023-08-21T14:42:36;2.03;;;0.50;;
75993;SDS011;64680;53.800;9.988;2023-08-21T14:45:02;0.90;;;0.43;;
75993;SDS011;64680;53.800;9.988;2023-08-21T14:47:28;1.77;;;0.80;;
75993;SDS011;64680;53.800;9.988;2023-08-21T14:49:54;2.42;;;0.55;;
75993;SDS011;64680;53.800;9.988;2023-08-21T14:52:20;1.77;;;0.55;;
75993;SDS011;64680;53.800;9.988;2023-08-21T14:54:46;3.55;;;0.77;;
75993;SDS011;64680;53.800;9.988;2023-08-21T14:57:13;1.40;;;0.50;;
75993;SDS011;64680;53.800;9.988;2023-08-21T14:59:39;2.03;;;0.50;;